MSC Paola — 9HA2581 — position and weather

sailwx.info

Track history (hours):
 
Tides and Currents Weather Stations Pressure Air Temp Water Temp Dewpoint Dewpoint Depression Visibility Wind Speed Wind Dir Waves Ship Positions

MSC Paola

Last reported at 2017-Aug-23 23:00 UTC. Time now 2017-Aug-23 23:13 UTC.
Position N 42°33' E 009°53'.

Length 243 m; draft 9.8 m.

Type: Ship (hazmat cat B). MMSI: 248931000.

Date/timePositionNaut miles runAvg speedWind from/ knotsBaromVisibWave heightAir tempDewpointWater temp
2017-Aug-23 23:00N 42°33' E 009°53'1020.3
2017-Aug-23 22:30N 42°43' E 009°55'1020.4
2017-Aug-23 22:01N 42°52' E 010°02'1020.3
2017-Aug-23 21:30N 43°02' E 010°06'1020.5
2017-Aug-23 21:00N 43°12' E 010°08'1020.2
2017-Aug-23 20:30N 43°22' E 010°10'917.3
2017-Aug-23 20:00N 43°31' E 010°11'5 9.7
2017-Aug-23 19:30N 43°33' E 010°17'2 3.9
2017-Aug-23 19:00N 43°35' E 010°18'0 0.0
2017-Aug-23 18:30N 43°35' E 010°18'0 0.0
2017-Aug-23 18:00N 43°35' E 010°18'0 0.0
2017-Aug-23 17:30N 43°35' E 010°18'0 0.0
2017-Aug-23 17:00N 43°35' E 010°18'0 0.0
2017-Aug-23 16:30N 43°35' E 010°18'0 0.0
2017-Aug-23 16:00N 43°35' E 010°18'0 0.0
2017-Aug-23 15:30N 43°35' E 010°18'0 0.0
2017-Aug-23 15:00N 43°35' E 010°18'0 0.0
2017-Aug-23 14:30N 43°35' E 010°18'0 0.0
2017-Aug-23 13:30N 43°35' E 010°18'0 0.0
2017-Aug-23 13:00N 43°35' E 010°18'0 0.0
2017-Aug-23 12:30N 43°35' E 010°18'0 0.0
2017-Aug-23 12:00N 43°35' E 010°18'0 0.0
2017-Aug-23 11:30N 43°35' E 010°18'0 0.0
2017-Aug-23 11:00N 43°35' E 010°18'0 0.1
2017-Aug-23 10:30N 43°35' E 010°18'2 3.4
2017-Aug-23 10:00N 43°33' E 010°17'4 8.3
2017-Aug-23 09:30N 43°30' E 010°13'510.6
2017-Aug-23 09:00N 43°28' E 010°06'611.7
2017-Aug-23 08:30N 43°30' E 009°59'918.6
2017-Aug-23 08:00N 43°33' E 009°47'1019.9
2017-Aug-23 07:30N 43°40' E 009°37'1019.8
2017-Aug-23 07:00N 43°47' E 009°27'1019.6
2017-Aug-23 06:30N 43°54' E 009°18'1019.4
2017-Aug-23 06:01N 44°01' E 009°08'1019.2
2017-Aug-23 05:30N 44°08' E 008°59'1019.3
2017-Aug-23 05:00N 44°15' E 008°49'917.0
2017-Aug-23 04:30N 44°21' E 008°42'5 9.7
2017-Aug-23 04:00N 44°25' E 008°47'0 0.8
2017-Aug-23 03:30N 44°25' E 008°47'0 0.0
2017-Aug-23 03:00N 44°25' E 008°47'0 0.0
2017-Aug-23 02:30N 44°25' E 008°47'0 0.0
2017-Aug-23 02:00N 44°25' E 008°47'0 0.0
2017-Aug-23 01:30N 44°25' E 008°47'0 0.0
2017-Aug-23 01:00N 44°25' E 008°47'0 0.0
2017-Aug-23 00:30N 44°25' E 008°47'0 0.0
2017-Aug-23 00:00N 44°25' E 008°47'0 0.0
2017-Aug-22 23:30N 44°25' E 008°47'0 0.0
2017-Aug-22 23:00N 44°25' E 008°47'0 0.0
2017-Aug-22 22:30N 44°25' E 008°47'0 0.0
2017-Aug-22 22:00N 44°25' E 008°47'0 0.0
2017-Aug-22 21:30N 44°25' E 008°47'0 0.0
2017-Aug-22 21:00N 44°25' E 008°47'0 0.0
2017-Aug-22 20:30N 44°25' E 008°47'0 0.0
2017-Aug-22 20:00N 44°25' E 008°47'0 0.0
2017-Aug-22 19:30N 44°25' E 008°47'0 0.0
2017-Aug-22 19:00N 44°25' E 008°47'0 0.0
2017-Aug-22 18:30N 44°25' E 008°47'0 0.0
2017-Aug-22 18:00N 44°25' E 008°47'0 0.0
2017-Aug-22 17:30N 44°25' E 008°47'0 0.0
2017-Aug-22 17:00N 44°25' E 008°47'0 0.0
2017-Aug-22 16:30N 44°25' E 008°47'0 0.0
2017-Aug-22 16:00N 44°25' E 008°47'0 0.0
2017-Aug-22 15:30N 44°25' E 008°47'0 0.0
2017-Aug-22 15:00N 44°25' E 008°47'0 0.0
2017-Aug-22 14:30N 44°25' E 008°47'0 0.0
2017-Aug-22 14:00N 44°25' E 008°47'0 0.0
2017-Aug-22 13:30N 44°25' E 008°47'0 0.0
2017-Aug-22 13:00N 44°25' E 008°47'0 0.0
2017-Aug-22 12:30N 44°25' E 008°47'0 0.0
2017-Aug-22 12:00N 44°25' E 008°47'0 0.0
2017-Aug-22 11:30N 44°25' E 008°47'0 0.0
2017-Aug-22 11:00N 44°25' E 008°47'0 0.0
2017-Aug-22 10:30N 44°25' E 008°47'0 0.0
2017-Aug-22 10:00N 44°25' E 008°47'0 0.0
2017-Aug-22 09:30N 44°25' E 008°47'0 0.0
2017-Aug-22 09:00N 44°25' E 008°47'0 0.1
2017-Aug-22 08:30N 44°25' E 008°47'3 5.0
2017-Aug-22 08:00N 44°24' E 008°44'5 9.3
2017-Aug-22 07:30N 44°20' E 008°41'714.8
2017-Aug-22 07:01N 44°13' E 008°37'816.7
2017-Aug-22 06:30N 44°05' E 008°33'917.2
2017-Aug-22 06:00N 43°57' E 008°28'919.0
2017-Aug-22 05:31N 43°49' E 008°23'1219.3
2017-Aug-22 04:55N 43°41' E 008°11'919.5
2017-Aug-22 04:28N 43°35' E 008°02'919.6
2017-Aug-22 04:00N 43°29' E 007°53'1019.4
2017-Aug-22 03:31N 43°23' E 007°42'1019.7
2017-Aug-22 03:01N 43°17' E 007°32'1019.8
2017-Aug-22 02:30N 43°10' E 007°22'1019.7
2017-Aug-22 02:01N 43°04' E 007°11'1019.8
2017-Aug-22 01:31N 42°57' E 007°01'1019.8
2017-Aug-22 01:01N 42°51' E 006°51'1019.6
2017-Aug-22 00:29N 42°44' E 006°40'3019.5
2017-Aug-21 22:57N 42°25' E 006°09'919.4
2017-Aug-21 22:30N 42°19' E 006°00'1119.6
2017-Aug-21 21:57N 42°12' E 005°49'2219.6
2017-Aug-21 20:52N 41°58' E 005°28'719.8
2017-Aug-21 20:30N 41°54' E 005°20'1019.8
2017-Aug-21 20:00N 41°47' E 005°10'1019.7
2017-Aug-21 19:30N 41°41' E 005°00'1019.9
2017-Aug-21 19:00N 41°34' E 004°50'1019.9
2017-Aug-21 18:30N 41°28' E 004°40'1020.2
2017-Aug-21 18:00N 41°21' E 004°30'1020.2
2017-Aug-21 17:30N 41°14' E 004°20'3519.6
2017-Aug-21 15:42N 40°52' E 003°44'419.6
2017-Aug-21 15:30N 40°49' E 003°40'1019.9
2017-Aug-21 15:00N 40°43' E 003°30'1019.8
2017-Aug-21 14:30N 40°36' E 003°20'1019.5
2017-Aug-21 14:00N 40°30' E 003°11'1019.6
2017-Aug-21 13:30N 40°23' E 003°01'1019.3
2017-Aug-21 13:00N 40°17' E 002°51'1019.4
2017-Aug-21 12:30N 40°11' E 002°42'1019.4
2017-Aug-21 12:00N 40°05' E 002°32'1019.5
2017-Aug-21 11:30N 39°58' E 002°22'1019.4
2017-Aug-21 11:00N 39°52' E 002°13'1019.5
2017-Aug-21 10:30N 39°46' E 002°03'1019.4
2017-Aug-21 09:59N 39°39' E 001°53'1019.7
2017-Aug-21 09:30N 39°33' E 001°44'1320.3
2017-Aug-21 08:53N 39°25' E 001°31'820.4
2017-Aug-21 08:29N 39°19' E 001°23'1420.3
2017-Aug-21 07:49N 39°10' E 001°10'4620.0
2017-Aug-21 05:30N 38°40' E 000°25'1019.8
2017-Aug-21 05:01N 38°32' E 000°18'1319.8
2017-Aug-21 04:22N 38°21' E 000°10'1419.8
2017-Aug-21 03:40N 38°10' E 000°01'519.4
2017-Aug-21 03:25N 38°05' W 000°02'819.6
2017-Aug-21 03:01N 37°59' W 000°08'1019.9
2017-Aug-21 02:29N 37°50' W 000°16'1020.2
2017-Aug-21 02:00N 37°42' W 000°23'1020.2
2017-Aug-21 01:31N 37°34' W 000°30'1020.1
2017-Aug-21 01:01N 37°27' W 000°39'1020.2
2017-Aug-21 00:31N 37°20' W 000°49'1019.9
2017-Aug-21 00:00N 37°14' W 000°58'1119.6
2017-Aug-20 23:28N 37°07' W 001°08'1219.8
2017-Aug-20 22:51N 36°59' W 001°19'18019.5
2017-Aug-20 13:37N 36°03' W 004°53'220.6
2017-Aug-20 13:30N 36°03' W 004°56'1021.0
2017-Aug-20 13:00N 36°01' W 005°09'1020.3
2017-Aug-20 12:31N 35°59' W 005°21'1319.5
2017-Aug-20 11:52N 35°55' W 005°35'1117.7
2017-Aug-20 11:14N 35°55' W 005°49'5218.0
2017-Aug-20 08:21N 35°29' W 006°45'720.3
2017-Aug-20 08:00N 35°24' W 006°51'1120.4
2017-Aug-20 07:27N 35°16' W 007°00'1320.3
2017-Aug-20 06:50N 35°07' W 007°11'720.4
2017-Aug-20 06:29N 35°02' W 007°18'1020.1
2017-Aug-20 06:00N 34°55' W 007°26'1019.8
2017-Aug-20 05:30N 34°48' W 007°34'1719.9
2017-Aug-20 04:39N 34°36' W 007°49'319.8
2017-Aug-20 04:30N 34°34' W 007°51'2219.9
2017-Aug-20 03:25N 34°19' W 008°10'820.0
2017-Aug-20 03:00N 34°13' W 008°17'1019.9
2017-Aug-20 02:30N 34°06' W 008°25'1119.7
2017-Aug-20 01:58N 33°58' W 008°34'1219.4
2017-Aug-20 01:21N 33°50' W 008°45'719.5
2017-Aug-20 01:00N 33°45' W 008°50'2319.2
2017-Aug-19 23:47N 33°29' W 009°10'519.2
2017-Aug-19 23:30N 33°25' W 009°15'1519.4
2017-Aug-19 22:45N 33°14' W 009°27'519.3
2017-Aug-19 22:30N 33°11' W 009°31'5619.0
2017-Aug-19 19:34N 32°32' W 010°18'218.5
2017-Aug-19 19:29N 32°30' W 010°19'918.3
2017-Aug-19 19:01N 32°24' W 010°26'918.2
2017-Aug-19 18:30N 32°18' W 010°34'918.3
2017-Aug-19 18:00N 32°11' W 010°42'1418.5
2017-Aug-19 17:15N 32°01' W 010°53'1318.8
2017-Aug-19 16:34N 31°52' W 011°04'1819.2
2017-Aug-19 15:37N 31°39' W 011°19'1119.5
2017-Aug-19 15:04N 31°32' W 011°28'119.4
2017-Aug-19 15:00N 31°31' W 011°29'1919.3
2017-Aug-19 14:00N 31°17' W 011°45'1019.3
2017-Aug-19 13:31N 31°10' W 011°53'1019.2
2017-Aug-19 13:00N 31°04' W 012°01'1119.2
2017-Aug-19 12:25N 30°56' W 012°10'819.1
2017-Aug-19 12:00N 30°50' W 012°16'919.1
2017-Aug-19 11:30N 30°43' W 012°24'1019.2
2017-Aug-19 11:00N 30°37' W 012°32'1019.4
2017-Aug-19 10:30N 30°30' W 012°40'919.0
2017-Aug-19 10:00N 30°23' W 012°48'918.6
2017-Aug-19 09:30N 30°16' W 012°55'918.9
2017-Aug-19 09:00N 30°10' W 013°03'918.4
2017-Aug-19 08:30N 30°03' W 013°11'815.8
2017-Aug-19 08:00N 29°58' W 013°17'0 0.5
2017-Aug-19 07:12N 29°58' W 013°17'2 1.8
2017-Aug-19 05:48N 29°60' W 013°15'1 1.9
2017-Aug-19 05:22N 30°00' W 013°14'2 4.9
2017-Aug-19 05:01N 29°59' W 013°16'918.4
2017-Aug-19 04:30N 29°52' W 013°23'918.6
2017-Aug-19 04:00N 29°46' W 013°30'918.9
2017-Aug-19 03:30N 29°39' W 013°38'918.7
2017-Aug-19 03:00N 29°33' W 013°46'918.2
2017-Aug-19 02:30N 29°26' W 013°53'918.4
2017-Aug-19 02:00N 29°20' W 014°01'918.6
2017-Aug-19 01:31N 29°13' W 014°08'918.6
2017-Aug-19 01:01N 29°06' W 014°16'918.4
2017-Aug-19 00:30N 28°60' W 014°23'918.4
2017-Aug-19 00:00N 28°53' W 014°31'918.3
2017-Aug-18 23:30N 28°46' W 014°38'1018.4
2017-Aug-18 22:59N 28°40' W 014°46'918.4
2017-Aug-18 22:30N 28°34' W 014°53'918.5
2017-Aug-18 22:00N 28°27' W 015°00'918.8
2017-Aug-18 21:30N 28°20' W 015°08'918.6
2017-Aug-18 21:00N 28°14' W 015°15'816.5
2017-Aug-18 20:30N 28°08' W 015°22'3 5.8
2017-Aug-18 20:00N 28°08' W 015°25'0 0.8
2017-Aug-18 19:30N 28°08' W 015°25'0 0.0
2017-Aug-18 19:00N 28°08' W 015°25'0 0.0
2017-Aug-18 18:30N 28°08' W 015°25'0 0.0
2017-Aug-18 18:00N 28°08' W 015°25'0 0.0
2017-Aug-18 17:30N 28°08' W 015°25'0 0.0
2017-Aug-18 17:00N 28°08' W 015°25'0 0.0
2017-Aug-18 16:30N 28°08' W 015°25'0 0.0
2017-Aug-18 16:00N 28°08' W 015°25'0 0.0
2017-Aug-18 15:30N 28°08' W 015°25'0 0.0
2017-Aug-18 15:00N 28°08' W 015°25'0 0.0
2017-Aug-18 14:30N 28°08' W 015°25'0 0.0
2017-Aug-18 13:30N 28°08' W 015°25'0 0.0
2017-Aug-18 13:00N 28°08' W 015°25'0 0.0
2017-Aug-18 12:30N 28°08' W 015°25'0 0.0
2017-Aug-18 12:00N 28°08' W 015°25'0 0.0
2017-Aug-18 11:30N 28°08' W 015°25'0 0.0
2017-Aug-18 11:00N 28°08' W 015°25'0 0.0
2017-Aug-18 10:30N 28°08' W 015°25'0 0.0
2017-Aug-18 10:00N 28°08' W 015°25'0 0.0
2017-Aug-18 09:30N 28°08' W 015°25'0 0.0
2017-Aug-18 09:00N 28°08' W 015°25'0 0.0
2017-Aug-18 08:30N 28°08' W 015°25'0 0.0
2017-Aug-18 08:00N 28°08' W 015°25'0 0.0
2017-Aug-18 07:30N 28°08' W 015°25'0 0.0
2017-Aug-18 07:00N 28°08' W 015°25'0 0.0
2017-Aug-18 06:30N 28°08' W 015°25'0 0.0
2017-Aug-18 06:00N 28°08' W 015°25'0 0.0
2017-Aug-18 05:30N 28°08' W 015°25'0 0.0
2017-Aug-18 05:00N 28°08' W 015°25'0 0.0
2017-Aug-18 04:30N 28°08' W 015°25'0 0.0
2017-Aug-18 04:00N 28°08' W 015°25'0 0.0
2017-Aug-18 03:30N 28°08' W 015°25'0 0.0
2017-Aug-18 03:00N 28°08' W 015°25'0 0.0
2017-Aug-18 02:30N 28°08' W 015°25'0 0.0
2017-Aug-18 02:00N 28°08' W 015°25'0 0.0
2017-Aug-18 01:30N 28°08' W 015°25'0 0.0
2017-Aug-18 01:00N 28°08' W 015°25'0 0.0
2017-Aug-18 00:30N 28°08' W 015°25'0 0.0
2017-Aug-18 00:00N 28°08' W 015°25'0 0.0
2017-Aug-17 23:30N 28°08' W 015°25'0 0.0
2017-Aug-17 23:00N 28°08' W 015°25'0 0.0
2017-Aug-17 22:30N 28°08' W 015°25'0 0.0
2017-Aug-17 22:00N 28°08' W 015°25'0 0.0
2017-Aug-17 21:30N 28°08' W 015°25'0 0.0
2017-Aug-17 21:00N 28°08' W 015°25'0 0.0
2017-Aug-17 20:30N 28°08' W 015°25'0 0.0
2017-Aug-17 20:00N 28°08' W 015°25'0 0.0
2017-Aug-17 19:30N 28°08' W 015°25'0 0.0
2017-Aug-17 19:00N 28°08' W 015°25'0 0.0
2017-Aug-17 18:30N 28°08' W 015°25'0 0.0
2017-Aug-17 18:00N 28°08' W 015°25'0 0.0
2017-Aug-17 17:30N 28°08' W 015°25'0 0.0
2017-Aug-17 17:00N 28°08' W 015°25'0 0.0
2017-Aug-17 16:30N 28°08' W 015°25'0 0.0
2017-Aug-17 16:00N 28°08' W 015°25'0 0.0
2017-Aug-17 15:30N 28°08' W 015°25'0 0.0
2017-Aug-17 15:00N 28°08' W 015°25'0 0.0
2017-Aug-17 14:30N 28°08' W 015°25'0 0.0
2017-Aug-17 14:00N 28°08' W 015°25'0 0.0
2017-Aug-17 13:30N 28°08' W 015°25'0 0.1
2017-Aug-17 13:01N 28°08' W 015°25'2 4.3
2017-Aug-17 12:30N 28°07' W 015°23'1 1.1
2017-Aug-17 12:00N 28°07' W 015°22'3 6.6
2017-Aug-17 11:30N 28°07' W 015°19'0 0.6
2017-Aug-17 11:00N 28°07' W 015°19'1 2.6
2017-Aug-17 10:30N 28°06' W 015°20'4 8.9
2017-Aug-17 10:00N 28°01' W 015°19'510.3
2017-Aug-17 09:30N 27°56' W 015°18'611.9
2017-Aug-17 09:00N 27°50' W 015°18'2212.8
2017-Aug-17 07:19N 27°31' W 015°29'512.9
2017-Aug-17 06:56N 27°26' W 015°31'613.2
2017-Aug-17 06:27N 27°21' W 015°34'613.6
2017-Aug-17 05:59N 27°15' W 015°37'713.6
2017-Aug-17 05:26N 27°08' W 015°40'613.6
2017-Aug-17 04:58N 27°02' W 015°43'713.3
2017-Aug-17 04:28N 26°56' W 015°47'713.3
2017-Aug-17 03:58N 26°50' W 015°50'5613.2
2017-Aug-16 23:43N 25°59' W 016°17'613.1
2017-Aug-16 23:13N 25°53' W 016°19'2612.7
2017-Aug-16 21:10N 25°30' W 016°32'312.5
2017-Aug-16 20:57N 25°28' W 016°33'612.6
2017-Aug-16 20:30N 25°22' W 016°36'2012.9
2017-Aug-16 18:59N 25°04' W 016°44'613.1
2017-Aug-16 18:30N 24°59' W 016°47'1013.2
2017-Aug-16 17:45N 24°50' W 016°52'313.0
2017-Aug-16 17:30N 24°47' W 016°54'713.2
2017-Aug-16 17:00N 24°41' W 016°57'1113.0
2017-Aug-16 16:08N 24°31' W 017°02'413.0
2017-Aug-16 15:47N 24°27' W 017°04'613.0
2017-Aug-16 15:20N 24°21' W 017°07'  
Track history (hours):
 
Tides and Currents Weather Stations Pressure Air Temp Water Temp Dewpoint Dewpoint Depression Visibility Wind Speed Wind Dir Waves Ship Positions

MSC Paola

Last reported at 2017-Aug-23 23:00 UTC. Time now 2017-Aug-23 23:13 UTC.
Position N 42°33' E 009°53'.

Length 243 m; draft 9.8 m.

Type: Ship (hazmat cat B). MMSI: 248931000.

Date/timePositionNaut miles runAvg speedWind from/ knotsBaromVisibWave heightAir tempDewpointWater temp
2017-Aug-23 23:00N 42°33' E 009°53'1020.3
2017-Aug-23 22:30N 42°43' E 009°55'1020.4
2017-Aug-23 22:01N 42°52' E 010°02'1020.3
2017-Aug-23 21:30N 43°02' E 010°06'1020.5
2017-Aug-23 21:00N 43°12' E 010°08'1020.2
2017-Aug-23 20:30N 43°22' E 010°10'917.3
2017-Aug-23 20:00N 43°31' E 010°11'5 9.7
2017-Aug-23 19:30N 43°33' E 010°17'2 3.9
2017-Aug-23 19:00N 43°35' E 010°18'0 0.0
2017-Aug-23 18:30N 43°35' E 010°18'0 0.0
2017-Aug-23 18:00N 43°35' E 010°18'0 0.0
2017-Aug-23 17:30N 43°35' E 010°18'0 0.0
2017-Aug-23 17:00N 43°35' E 010°18'0 0.0
2017-Aug-23 16:30N 43°35' E 010°18'0 0.0
2017-Aug-23 16:00N 43°35' E 010°18'0 0.0
2017-Aug-23 15:30N 43°35' E 010°18'0 0.0
2017-Aug-23 15:00N 43°35' E 010°18'0 0.0
2017-Aug-23 14:30N 43°35' E 010°18'0 0.0
2017-Aug-23 13:30N 43°35' E 010°18'0 0.0
2017-Aug-23 13:00N 43°35' E 010°18'0 0.0
2017-Aug-23 12:30N 43°35' E 010°18'0 0.0
2017-Aug-23 12:00N 43°35' E 010°18'0 0.0
2017-Aug-23 11:30N 43°35' E 010°18'0 0.0
2017-Aug-23 11:00N 43°35' E 010°18'0 0.1
2017-Aug-23 10:30N 43°35' E 010°18'2 3.4
2017-Aug-23 10:00N 43°33' E 010°17'4 8.3
2017-Aug-23 09:30N 43°30' E 010°13'510.6
2017-Aug-23 09:00N 43°28' E 010°06'611.7
2017-Aug-23 08:30N 43°30' E 009°59'918.6
2017-Aug-23 08:00N 43°33' E 009°47'1019.9
2017-Aug-23 07:30N 43°40' E 009°37'1019.8
2017-Aug-23 07:00N 43°47' E 009°27'1019.6
2017-Aug-23 06:30N 43°54' E 009°18'1019.4
2017-Aug-23 06:01N 44°01' E 009°08'1019.2
2017-Aug-23 05:30N 44°08' E 008°59'1019.3
2017-Aug-23 05:00N 44°15' E 008°49'917.0
2017-Aug-23 04:30N 44°21' E 008°42'5 9.7
2017-Aug-23 04:00N 44°25' E 008°47'0 0.8
2017-Aug-23 03:30N 44°25' E 008°47'0 0.0
2017-Aug-23 03:00N 44°25' E 008°47'0 0.0
2017-Aug-23 02:30N 44°25' E 008°47'0 0.0
2017-Aug-23 02:00N 44°25' E 008°47'0 0.0
2017-Aug-23 01:30N 44°25' E 008°47'0 0.0
2017-Aug-23 01:00N 44°25' E 008°47'0 0.0
2017-Aug-23 00:30N 44°25' E 008°47'0 0.0
2017-Aug-23 00:00N 44°25' E 008°47'0 0.0
2017-Aug-22 23:30N 44°25' E 008°47'0 0.0
2017-Aug-22 23:00N 44°25' E 008°47'0 0.0
2017-Aug-22 22:30N 44°25' E 008°47'0 0.0
2017-Aug-22 22:00N 44°25' E 008°47'0 0.0
2017-Aug-22 21:30N 44°25' E 008°47'0 0.0
2017-Aug-22 21:00N 44°25' E 008°47'0 0.0
2017-Aug-22 20:30N 44°25' E 008°47'0 0.0
2017-Aug-22 20:00N 44°25' E 008°47'0 0.0
2017-Aug-22 19:30N 44°25' E 008°47'0 0.0
2017-Aug-22 19:00N 44°25' E 008°47'0 0.0
2017-Aug-22 18:30N 44°25' E 008°47'0 0.0
2017-Aug-22 18:00N 44°25' E 008°47'0 0.0
2017-Aug-22 17:30N 44°25' E 008°47'0 0.0
2017-Aug-22 17:00N 44°25' E 008°47'0 0.0
2017-Aug-22 16:30N 44°25' E 008°47'0 0.0
2017-Aug-22 16:00N 44°25' E 008°47'0 0.0
2017-Aug-22 15:30N 44°25' E 008°47'0 0.0
2017-Aug-22 15:00N 44°25' E 008°47'0 0.0
2017-Aug-22 14:30N 44°25' E 008°47'0 0.0
2017-Aug-22 14:00N 44°25' E 008°47'0 0.0
2017-Aug-22 13:30N 44°25' E 008°47'0 0.0
2017-Aug-22 13:00N 44°25' E 008°47'0 0.0
2017-Aug-22 12:30N 44°25' E 008°47'0 0.0
2017-Aug-22 12:00N 44°25' E 008°47'0 0.0
2017-Aug-22 11:30N 44°25' E 008°47'0 0.0
2017-Aug-22 11:00N 44°25' E 008°47'0 0.0
2017-Aug-22 10:30N 44°25' E 008°47'0 0.0
2017-Aug-22 10:00N 44°25' E 008°47'0 0.0
2017-Aug-22 09:30N 44°25' E 008°47'0 0.0
2017-Aug-22 09:00N 44°25' E 008°47'0 0.1
2017-Aug-22 08:30N 44°25' E 008°47'3 5.0
2017-Aug-22 08:00N 44°24' E 008°44'5 9.3
2017-Aug-22 07:30N 44°20' E 008°41'714.8
2017-Aug-22 07:01N 44°13' E 008°37'816.7
2017-Aug-22 06:30N 44°05' E 008°33'917.2
2017-Aug-22 06:00N 43°57' E 008°28'919.0
2017-Aug-22 05:31N 43°49' E 008°23'1219.3
2017-Aug-22 04:55N 43°41' E 008°11'919.5
2017-Aug-22 04:28N 43°35' E 008°02'919.6
2017-Aug-22 04:00N 43°29' E 007°53'1019.4
2017-Aug-22 03:31N 43°23' E 007°42'1019.7
2017-Aug-22 03:01N 43°17' E 007°32'1019.8
2017-Aug-22 02:30N 43°10' E 007°22'1019.7
2017-Aug-22 02:01N 43°04' E 007°11'1019.8
2017-Aug-22 01:31N 42°57' E 007°01'1019.8
2017-Aug-22 01:01N 42°51' E 006°51'1019.6
2017-Aug-22 00:29N 42°44' E 006°40'3019.5
2017-Aug-21 22:57N 42°25' E 006°09'919.4
2017-Aug-21 22:30N 42°19' E 006°00'1119.6
2017-Aug-21 21:57N 42°12' E 005°49'2219.6
2017-Aug-21 20:52N 41°58' E 005°28'719.8
2017-Aug-21 20:30N 41°54' E 005°20'1019.8
2017-Aug-21 20:00N 41°47' E 005°10'1019.7
2017-Aug-21 19:30N 41°41' E 005°00'1019.9
2017-Aug-21 19:00N 41°34' E 004°50'1019.9
2017-Aug-21 18:30N 41°28' E 004°40'1020.2
2017-Aug-21 18:00N 41°21' E 004°30'1020.2
2017-Aug-21 17:30N 41°14' E 004°20'3519.6
2017-Aug-21 15:42N 40°52' E 003°44'419.6
2017-Aug-21 15:30N 40°49' E 003°40'1019.9
2017-Aug-21 15:00N 40°43' E 003°30'1019.8
2017-Aug-21 14:30N 40°36' E 003°20'1019.5
2017-Aug-21 14:00N 40°30' E 003°11'1019.6
2017-Aug-21 13:30N 40°23' E 003°01'1019.3
2017-Aug-21 13:00N 40°17' E 002°51'1019.4
2017-Aug-21 12:30N 40°11' E 002°42'1019.4
2017-Aug-21 12:00N 40°05' E 002°32'1019.5
2017-Aug-21 11:30N 39°58' E 002°22'1019.4
2017-Aug-21 11:00N 39°52' E 002°13'1019.5
2017-Aug-21 10:30N 39°46' E 002°03'1019.4
2017-Aug-21 09:59N 39°39' E 001°53'1019.7
2017-Aug-21 09:30N 39°33' E 001°44'1320.3
2017-Aug-21 08:53N 39°25' E 001°31'820.4
2017-Aug-21 08:29N 39°19' E 001°23'1420.3
2017-Aug-21 07:49N 39°10' E 001°10'4620.0
2017-Aug-21 05:30N 38°40' E 000°25'1019.8
2017-Aug-21 05:01N 38°32' E 000°18'1319.8
2017-Aug-21 04:22N 38°21' E 000°10'1419.8
2017-Aug-21 03:40N 38°10' E 000°01'519.4
2017-Aug-21 03:25N 38°05' W 000°02'819.6
2017-Aug-21 03:01N 37°59' W 000°08'1019.9
2017-Aug-21 02:29N 37°50' W 000°16'1020.2
2017-Aug-21 02:00N 37°42' W 000°23'1020.2
2017-Aug-21 01:31N 37°34' W 000°30'1020.1
2017-Aug-21 01:01N 37°27' W 000°39'1020.2
2017-Aug-21 00:31N 37°20' W 000°49'1019.9
2017-Aug-21 00:00N 37°14' W 000°58'1119.6
2017-Aug-20 23:28N 37°07' W 001°08'1219.8
2017-Aug-20 22:51N 36°59' W 001°19'18019.5
2017-Aug-20 13:37N 36°03' W 004°53'220.6
2017-Aug-20 13:30N 36°03' W 004°56'1021.0
2017-Aug-20 13:00N 36°01' W 005°09'1020.3
2017-Aug-20 12:31N 35°59' W 005°21'1319.5
2017-Aug-20 11:52N 35°55' W 005°35'1117.7
2017-Aug-20 11:14N 35°55' W 005°49'5218.0
2017-Aug-20 08:21N 35°29' W 006°45'720.3
2017-Aug-20 08:00N 35°24' W 006°51'1120.4
2017-Aug-20 07:27N 35°16' W 007°00'1320.3
2017-Aug-20 06:50N 35°07' W 007°11'720.4
2017-Aug-20 06:29N 35°02' W 007°18'1020.1
2017-Aug-20 06:00N 34°55' W 007°26'1019.8
2017-Aug-20 05:30N 34°48' W 007°34'1719.9
2017-Aug-20 04:39N 34°36' W 007°49'319.8
2017-Aug-20 04:30N 34°34' W 007°51'2219.9
2017-Aug-20 03:25N 34°19' W 008°10'820.0
2017-Aug-20 03:00N 34°13' W 008°17'1019.9
2017-Aug-20 02:30N 34°06' W 008°25'1119.7
2017-Aug-20 01:58N 33°58' W 008°34'1219.4
2017-Aug-20 01:21N 33°50' W 008°45'719.5
2017-Aug-20 01:00N 33°45' W 008°50'2319.2
2017-Aug-19 23:47N 33°29' W 009°10'519.2
2017-Aug-19 23:30N 33°25' W 009°15'1519.4
2017-Aug-19 22:45N 33°14' W 009°27'519.3
2017-Aug-19 22:30N 33°11' W 009°31'5619.0
2017-Aug-19 19:34N 32°32' W 010°18'218.5
2017-Aug-19 19:29N 32°30' W 010°19'918.3
2017-Aug-19 19:01N 32°24' W 010°26'918.2
2017-Aug-19 18:30N 32°18' W 010°34'918.3
2017-Aug-19 18:00N 32°11' W 010°42'1418.5
2017-Aug-19 17:15N 32°01' W 010°53'1318.8
2017-Aug-19 16:34N 31°52' W 011°04'1819.2
2017-Aug-19 15:37N 31°39' W 011°19'1119.5
2017-Aug-19 15:04N 31°32' W 011°28'119.4
2017-Aug-19 15:00N 31°31' W 011°29'1919.3
2017-Aug-19 14:00N 31°17' W 011°45'1019.3
2017-Aug-19 13:31N 31°10' W 011°53'1019.2
2017-Aug-19 13:00N 31°04' W 012°01'1119.2
2017-Aug-19 12:25N 30°56' W 012°10'819.1
2017-Aug-19 12:00N 30°50' W 012°16'919.1
2017-Aug-19 11:30N 30°43' W 012°24'1019.2
2017-Aug-19 11:00N 30°37' W 012°32'1019.4
2017-Aug-19 10:30N 30°30' W 012°40'919.0
2017-Aug-19 10:00N 30°23' W 012°48'918.6
2017-Aug-19 09:30N 30°16' W 012°55'918.9
2017-Aug-19 09:00N 30°10' W 013°03'918.4
2017-Aug-19 08:30N 30°03' W 013°11'815.8
2017-Aug-19 08:00N 29°58' W 013°17'0 0.5
2017-Aug-19 07:12N 29°58' W 013°17'2 1.8
2017-Aug-19 05:48N 29°60' W 013°15'1 1.9
2017-Aug-19 05:22N 30°00' W 013°14'2 4.9
2017-Aug-19 05:01N 29°59' W 013°16'918.4
2017-Aug-19 04:30N 29°52' W 013°23'918.6
2017-Aug-19 04:00N 29°46' W 013°30'918.9
2017-Aug-19 03:30N 29°39' W 013°38'918.7
2017-Aug-19 03:00N 29°33' W 013°46'918.2
2017-Aug-19 02:30N 29°26' W 013°53'918.4
2017-Aug-19 02:00N 29°20' W 014°01'918.6
2017-Aug-19 01:31N 29°13' W 014°08'918.6
2017-Aug-19 01:01N 29°06' W 014°16'918.4
2017-Aug-19 00:30N 28°60' W 014°23'918.4
2017-Aug-19 00:00N 28°53' W 014°31'918.3
2017-Aug-18 23:30N 28°46' W 014°38'1018.4
2017-Aug-18 22:59N 28°40' W 014°46'918.4
2017-Aug-18 22:30N 28°34' W 014°53'918.5
2017-Aug-18 22:00N 28°27' W 015°00'918.8
2017-Aug-18 21:30N 28°20' W 015°08'918.6
2017-Aug-18 21:00N 28°14' W 015°15'816.5
2017-Aug-18 20:30N 28°08' W 015°22'3 5.8
2017-Aug-18 20:00N 28°08' W 015°25'0 0.8
2017-Aug-18 19:30N 28°08' W 015°25'0 0.0
2017-Aug-18 19:00N 28°08' W 015°25'0 0.0
2017-Aug-18 18:30N 28°08' W 015°25'0 0.0
2017-Aug-18 18:00N 28°08' W 015°25'0 0.0
2017-Aug-18 17:30N 28°08' W 015°25'0 0.0
2017-Aug-18 17:00N 28°08' W 015°25'0 0.0
2017-Aug-18 16:30N 28°08' W 015°25'0 0.0
2017-Aug-18 16:00N 28°08' W 015°25'0 0.0
2017-Aug-18 15:30N 28°08' W 015°25'0 0.0
2017-Aug-18 15:00N 28°08' W 015°25'0 0.0
2017-Aug-18 14:30N 28°08' W 015°25'0 0.0
2017-Aug-18 13:30N 28°08' W 015°25'0 0.0
2017-Aug-18 13:00N 28°08' W 015°25'0 0.0
2017-Aug-18 12:30N 28°08' W 015°25'0 0.0
2017-Aug-18 12:00N 28°08' W 015°25'0 0.0
2017-Aug-18 11:30N 28°08' W 015°25'0 0.0
2017-Aug-18 11:00N 28°08' W 015°25'0 0.0
2017-Aug-18 10:30N 28°08' W 015°25'0 0.0
2017-Aug-18 10:00N 28°08' W 015°25'0 0.0
2017-Aug-18 09:30N 28°08' W 015°25'0 0.0
2017-Aug-18 09:00N 28°08' W 015°25'0 0.0
2017-Aug-18 08:30N 28°08' W 015°25'0 0.0
2017-Aug-18 08:00N 28°08' W 015°25'0 0.0
2017-Aug-18 07:30N 28°08' W 015°25'0 0.0
2017-Aug-18 07:00N 28°08' W 015°25'0 0.0
2017-Aug-18 06:30N 28°08' W 015°25'0 0.0
2017-Aug-18 06:00N 28°08' W 015°25'0 0.0
2017-Aug-18 05:30N 28°08' W 015°25'0 0.0
2017-Aug-18 05:00N 28°08' W 015°25'0 0.0
2017-Aug-18 04:30N 28°08' W 015°25'0 0.0
2017-Aug-18 04:00N 28°08' W 015°25'0 0.0
2017-Aug-18 03:30N 28°08' W 015°25'0 0.0
2017-Aug-18 03:00N 28°08' W 015°25'0 0.0
2017-Aug-18 02:30N 28°08' W 015°25'0 0.0
2017-Aug-18 02:00N 28°08' W 015°25'0 0.0
2017-Aug-18 01:30N 28°08' W 015°25'0 0.0
2017-Aug-18 01:00N 28°08' W 015°25'0 0.0
2017-Aug-18 00:30N 28°08' W 015°25'0 0.0
2017-Aug-18 00:00N 28°08' W 015°25'0 0.0
2017-Aug-17 23:30N 28°08' W 015°25'0 0.0
2017-Aug-17 23:00N 28°08' W 015°25'0 0.0
2017-Aug-17 22:30N 28°08' W 015°25'0 0.0
2017-Aug-17 22:00N 28°08' W 015°25'0 0.0
2017-Aug-17 21:30N 28°08' W 015°25'0 0.0
2017-Aug-17 21:00N 28°08' W 015°25'0 0.0
2017-Aug-17 20:30N 28°08' W 015°25'0 0.0
2017-Aug-17 20:00N 28°08' W 015°25'0 0.0
2017-Aug-17 19:30N 28°08' W 015°25'0 0.0
2017-Aug-17 19:00N 28°08' W 015°25'0 0.0
2017-Aug-17 18:30N 28°08' W 015°25'0 0.0
2017-Aug-17 18:00N 28°08' W 015°25'0 0.0
2017-Aug-17 17:30N 28°08' W 015°25'0 0.0
2017-Aug-17 17:00N 28°08' W 015°25'0 0.0
2017-Aug-17 16:30N 28°08' W 015°25'0 0.0
2017-Aug-17 16:00N 28°08' W 015°25'0 0.0
2017-Aug-17 15:30N 28°08' W 015°25'0 0.0
2017-Aug-17 15:00N 28°08' W 015°25'0 0.0
2017-Aug-17 14:30N 28°08' W 015°25'0 0.0
2017-Aug-17 14:00N 28°08' W 015°25'0 0.0
2017-Aug-17 13:30N 28°08' W 015°25'0 0.1
2017-Aug-17 13:01N 28°08' W 015°25'2 4.3
2017-Aug-17 12:30N 28°07' W 015°23'1 1.1
2017-Aug-17 12:00N 28°07' W 015°22'3 6.6
2017-Aug-17 11:30N 28°07' W 015°19'0 0.6
2017-Aug-17 11:00N 28°07' W 015°19'1 2.6
2017-Aug-17 10:30N 28°06' W 015°20'4 8.9
2017-Aug-17 10:00N 28°01' W 015°19'510.3
2017-Aug-17 09:30N 27°56' W 015°18'611.9
2017-Aug-17 09:00N 27°50' W 015°18'2212.8
2017-Aug-17 07:19N 27°31' W 015°29'512.9
2017-Aug-17 06:56N 27°26' W 015°31'613.2
2017-Aug-17 06:27N 27°21' W 015°34'613.6
2017-Aug-17 05:59N 27°15' W 015°37'713.6
2017-Aug-17 05:26N 27°08' W 015°40'613.6
2017-Aug-17 04:58N 27°02' W 015°43'713.3
2017-Aug-17 04:28N 26°56' W 015°47'713.3
2017-Aug-17 03:58N 26°50' W 015°50'5613.2
2017-Aug-16 23:43N 25°59' W 016°17'613.1
2017-Aug-16 23:13N 25°53' W 016°19'2612.7
2017-Aug-16 21:10N 25°30' W 016°32'312.5
2017-Aug-16 20:57N 25°28' W 016°33'612.6
2017-Aug-16 20:30N 25°22' W 016°36'2012.9
2017-Aug-16 18:59N 25°04' W 016°44'613.1
2017-Aug-16 18:30N 24°59' W 016°47'1013.2
2017-Aug-16 17:45N 24°50' W 016°52'313.0
2017-Aug-16 17:30N 24°47' W 016°54'713.2
2017-Aug-16 17:00N 24°41' W 016°57'1113.0
2017-Aug-16 16:08N 24°31' W 017°02'413.0
2017-Aug-16 15:47N 24°27' W 017°04'613.0
2017-Aug-16 15:20N 24°21' W 017°07'  

Dump ship's entire track history